Webcam more information Webcam


altri nostri siti meteo:

ViterbometeoSito sul meteo

Pomeziameteo 1Sito sul meteo

Pomeziameteo DashboardSito sul meteo

Caput FrigorisSito sul meteo

BarcellonameteoSito sul meteo

MeteoipassiSito sul meteo

TortoretometeolidoSito sul meteo

CastelnuovovomanometeoSito sul meteo

MeteogonzagaSito sul meteo

MeteonetworkInvio dai a Meteonetwork



Nessuna attenzione particolare richiesta.    Non ci sono allerte meteo

Weather Underground Storia pagina Testo

Quotidiano Riepilogo per novembre 12, 2018 Unita:  Metrico    Inglese   Entrambi
« Indietro Day
Avanti Day »
Quotidiano Settimanale mensile Annuale Personalizzato
  Attuale: Max: Min: Media:
Temperatura: -10.2 °C -17.8 °C -11.6 °C -10.3 °C
P.to Rugiada: -11.3 °C -17.8 °C -13 °C -12.1 °C
Umidita: 88 % Humidity % 69 % 81 %
Vel. Vento: 0 km/h 0 km/h 0 km/h 8 km/h
Raffiche: 0 km/h 0 km/h - -
Vento:Calm - - SE
Pressione: 34774.2 hPa 0 hPa 34669.3 hPa -
Precipitazioni: 0 mm      
Historical Graphs
 
 
Dati di tabella per il novembre 12, 2018
Tempo Temperatura P.to Rugiada Pressione Vento Vel. Vento Raffiche Umidita Tasso delle precipitazioni (oraria)
-17.8 °C -17.8 °C 0 hPa Calm     Humidity % 0 mm
00:00 -10.8 °C -12.3 °C 34669.3 hPa SSW 7.7 km/h 12.9 km/h 84 % 0 mm
00:15 -10.8 °C -12.3 °C 34669.3 hPa SSW 10.3 km/h 12.9 km/h 84 % 0 mm
00:20 -10.8 °C -12.3 °C 34669.3 hPa SSW 10.3 km/h 12.9 km/h 84 % 0 mm
00:35 -10.8 °C -12.4 °C 34669.3 hPa South 12.9 km/h 12.9 km/h 82 % 0 mm
00:45 -10.8 °C -12.4 °C 34682.8 hPa South 5.1 km/h 12.9 km/h 83 % 0 mm
00:55 -10.8 °C -12.4 °C 34682.8 hPa South 5.1 km/h 12.9 km/h 83 % 0 mm
01:00 -10.9 °C -12.4 °C 34682.8 hPa South 5.1 km/h 12.9 km/h 83 % 0 mm
01:05 -10.9 °C -12.6 °C 34682.8 hPa South 7.7 km/h 7.7 km/h 83 % 0 mm
01:15 -10.8 °C -12.4 °C 34682.8 hPa South 5.1 km/h 10.3 km/h 83 % 0 mm
01:25 -10.8 °C -12.4 °C 34682.8 hPa South 2.6 km/h 5.1 km/h 83 % 0 mm
01:35 -10.9 °C -12.4 °C 34693 hPa South 5.1 km/h 7.7 km/h 83 % 0 mm
01:40 -11 °C -12.6 °C 34693 hPa South 2.6 km/h 7.7 km/h 83 % 0 mm
01:50 -11 °C -12.5 °C 34693 hPa South 5.1 km/h 7.7 km/h 84 % 0 mm
01:55 -11 °C -12.5 °C 34693 hPa South 5.1 km/h 7.7 km/h 84 % 0 mm
02:00 -11.1 °C -12.6 °C 34693 hPa South 2.6 km/h 5.1 km/h 84 % 0 mm
02:10 -11.1 °C -12.6 °C 34693 hPa South 7.7 km/h 7.7 km/h 84 % 0 mm
02:20 -11 °C -12.4 °C 34682.8 hPa South 5.1 km/h 10.3 km/h 84 % 0 mm
02:25 -10.9 °C -12.3 °C 34693 hPa South 5.1 km/h 7.7 km/h 84 % 0 mm
02:30 -10.7 °C -12.3 °C 34693 hPa South 5.1 km/h 5.1 km/h 83 % 0 mm
02:45 -10.9 °C -12.4 °C 34693 hPa South 5.1 km/h 7.7 km/h 83 % 0 mm
02:50 -11.1 °C -12.6 °C 34693 hPa South 7.7 km/h 7.7 km/h 84 % 0 mm
02:55 -11.2 °C -12.6 °C 34693 hPa South 10.3 km/h 12.9 km/h 85 % 0 mm
03:00 -11.2 °C -12.5 °C 34693 hPa South 7.7 km/h 15.6 km/h 85 % 0 mm
03:05 -11.1 °C -12.6 °C 34682.8 hPa South 10.3 km/h 15.6 km/h 84 % 0 mm
03:10 -11.1 °C -12.6 °C 34682.8 hPa South 10.3 km/h 15.6 km/h 84 % 0 mm
03:20 -11 °C -12.4 °C 34682.8 hPa South 12.9 km/h 18.2 km/h 85 % 0 mm
03:25 -10.9 °C -12.4 °C 34682.8 hPa South 7.7 km/h 15.6 km/h 84 % 0 mm
03:30 -10.9 °C -12.4 °C 34682.8 hPa South 12.9 km/h 15.6 km/h 84 % 0 mm
03:40 -11.1 °C -12.6 °C 34682.8 hPa South 15.6 km/h 18.2 km/h 84 % 0 mm
03:45 -11.1 °C -12.6 °C 34682.8 hPa SSE 15.6 km/h 20.8 km/h 84 % 0 mm
03:55 -11.1 °C -12.6 °C 34682.8 hPa SSE 10.3 km/h 18.2 km/h 84 % 0 mm
04:00 -11.1 °C -12.6 °C 34682.8 hPa SSE 10.3 km/h 15.6 km/h 84 % 0 mm
04:15 -10.9 °C -12.4 °C 34693 hPa SSE 15.6 km/h 18.2 km/h 84 % 0 mm
04:25 -10.9 °C -12.5 °C 34693 hPa SE 18.2 km/h 20.8 km/h 83 % 0 mm
04:35 -11.1 °C -12.6 °C 34693 hPa ESE 20.8 km/h 23.3 km/h 84 % 0 mm
04:45 -11.2 °C -12.7 °C 34693 hPa ESE 15.6 km/h 18.2 km/h 84 % 0 mm
04:55 -11.5 °C -12.9 °C 34693 hPa ESE 15.6 km/h 20.8 km/h 85 % 0 mm
05:25 -11.6 °C -12.8 °C 34693 hPa East 15.6 km/h 23.3 km/h 86 % 0 mm
05:35 -11.4 °C -12.7 °C 34703.1 hPa East 15.6 km/h 23.3 km/h 86 % 0 mm
05:40 -11.4 °C -12.8 °C 34703.1 hPa East 18.2 km/h 23.3 km/h 85 % 0 mm
05:50 -11.4 °C -12.7 °C 34693 hPa East 10.3 km/h 20.8 km/h 86 % 0 mm
05:55 -11.4 °C -12.7 °C 34703.1 hPa East 15.6 km/h 18.2 km/h 85 % 0 mm
06:05 -11.4 °C -12.8 °C 34693 hPa East 10.3 km/h 15.6 km/h 85 % 0 mm
06:15 -11.5 °C -12.9 °C 34703.1 hPa East 5.1 km/h 10.3 km/h 85 % 0 mm
06:20 -11.6 °C -12.8 °C 34703.1 hPa East 7.7 km/h 15.6 km/h 86 % 0 mm
06:25 -11.6 °C -12.8 °C 34703.1 hPa East 15.6 km/h 15.6 km/h 86 % 0 mm
06:30 -11.6 °C -12.8 °C 34703.1 hPa East 7.7 km/h 20.8 km/h 86 % 0 mm
06:50 -11.4 °C -12.8 °C 34703.1 hPa East 7.7 km/h 18.2 km/h 85 % 0 mm
07:00 -11.6 °C -13 °C 34716.7 hPa East 10.3 km/h 12.9 km/h 84 % 0 mm
07:10 -11.6 °C -12.8 °C 34716.7 hPa East 10.3 km/h 20.8 km/h 86 % 0 mm
07:20 -11.4 °C -12.7 °C 34716.7 hPa East 7.7 km/h 12.9 km/h 86 % 0 mm
07:25 -11.3 °C -12.7 °C 34716.7 hPa East 7.7 km/h 12.9 km/h 85 % 0 mm
07:30 -11.4 °C -12.7 °C 34716.7 hPa East 12.9 km/h 20.8 km/h 85 % 0 mm
07:50 -11 °C -12.5 °C 34726.8 hPa East 12.9 km/h 18.2 km/h 84 % 0 mm
07:55 -10.9 °C -12.4 °C 34726.8 hPa East 7.7 km/h 18.2 km/h 83 % 0 mm
08:05 -10.9 °C -12.5 °C 34726.8 hPa East 10.3 km/h 18.2 km/h 83 % 0 mm
08:10 -10.8 °C -12.4 °C 34726.8 hPa ENE 20.8 km/h 25.9 km/h 82 % 0 mm
08:15 -10.6 °C -12.5 °C 34740.4 hPa ENE 12.9 km/h 28.5 km/h 80 % 0 mm
08:20 -10.6 °C -12.4 °C 34740.4 hPa ENE 7.7 km/h 20.8 km/h 81 % 0 mm
08:35 -10.4 °C -12.2 °C 34740.4 hPa ENE 7.7 km/h 18.2 km/h 81 % 0 mm
08:40 -10.3 °C -12.2 °C 34740.4 hPa ENE 10.3 km/h 12.9 km/h 80 % 0 mm
08:50 -10.1 °C -12 °C 34740.4 hPa ENE 7.7 km/h 7.7 km/h 80 % 0 mm
08:55 -10.1 °C -11.9 °C 34750.5 hPa ENE 5.1 km/h 10.3 km/h 80 % 0 mm
09:00 -9.9 °C -12 °C 34750.5 hPa ENE 5.1 km/h 12.9 km/h 79 % 0 mm
09:05 -9.8 °C -12 °C 34750.5 hPa ENE 7.7 km/h 12.9 km/h 78 % 0 mm
09:30 -9.6 °C -12 °C 34750.5 hPa ENE 5.1 km/h 10.3 km/h 76 % 0 mm
09:35 -9.7 °C -11.9 °C 34750.5 hPa ENE 7.7 km/h 12.9 km/h 77 % 0 mm
09:40 -9.6 °C -11.8 °C 34750.5 hPa ENE 10.3 km/h 12.9 km/h 77 % 0 mm
10:10 -9.3 °C -11.6 °C 34750.5 hPa ENE 7.7 km/h 10.3 km/h 77 % 0 mm
10:20 -9.3 °C -11.6 °C 34750.5 hPa ENE 5.1 km/h 12.9 km/h 77 % 0 mm
10:25 -9.3 °C -11.6 °C 34760.7 hPa ENE 10.3 km/h 12.9 km/h 76 % 0 mm
10:50 -8.9 °C -11.3 °C 34760.7 hPa ENE 7.7 km/h 7.7 km/h 76 % 0 mm
11:05 -8.8 °C -11.5 °C 34760.7 hPa ENE 2.6 km/h 10.3 km/h 73 % 0 mm
11:15 -8.7 °C -11.3 °C 34760.7 hPa ENE 7.7 km/h 10.3 km/h 74 % 0 mm
11:50 -8.3 °C -11.4 °C 34750.5 hPa ENE 2.6 km/h 10.3 km/h 70 % 0 mm
11:55 -8.3 °C -11.4 °C 34760.7 hPa East 7.7 km/h 18.2 km/h 70 % 0 mm
12:15 -8.2 °C -11.4 °C 34750.5 hPa SSE 2.6 km/h 10.3 km/h 69 % 0 mm
12:20 -8.2 °C -11.3 °C 34750.5 hPa SSE 10.3 km/h 20.8 km/h 69 % 0 mm
12:55 -8.1 °C -11 °C 34750.5 hPa SSW 7.7 km/h 12.9 km/h 71 % 0 mm
13:05 -7.9 °C -11 °C 34740.4 hPa SSW 7.7 km/h 12.9 km/h 70 % 0 mm
13:10 -7.9 °C -10.9 °C 34750.5 hPa SSW 10.3 km/h 10.3 km/h 71 % 0 mm
13:35 -8.1 °C -10.8 °C 34740.4 hPa SSW 5.1 km/h 10.3 km/h 73 % 0 mm
13:40 -8.1 °C -10.9 °C 34740.4 hPa SSW 12.9 km/h 18.2 km/h 72 % 0 mm
14:10 -8.2 °C -10.9 °C 34740.4 hPa Calm   7.7 km/h 73 % 0 mm
14:20 -8.3 °C -10.9 °C 34740.4 hPa SSW 12.9 km/h 15.6 km/h 74 % 0 mm
14:25 -8.4 °C -11 °C 34740.4 hPa SSW 10.3 km/h 18.2 km/h 74 % 0 mm
15:10 -8.4 °C -10.9 °C 34740.4 hPa SSW 5.1 km/h 10.3 km/h 75 % 0 mm
15:45 -8.3 °C -10.8 °C 34740.4 hPa Calm     75 % 0 mm
15:55 -8.2 °C -10.9 °C 34740.4 hPa SSW 5.1 km/h 10.3 km/h 74 % 0 mm
16:00 -8.3 °C -10.8 °C 34740.4 hPa Calm   7.7 km/h 75 % 0 mm
16:10 -8.4 °C -10.9 °C 34740.4 hPa SSW 2.6 km/h 7.7 km/h 75 % 0 mm
16:35 -8.8 °C -10.7 °C 34740.4 hPa SSW 2.6 km/h 10.3 km/h 81 % 0 mm
16:40 -8.9 °C -10.7 °C 34740.4 hPa Calm   10.3 km/h 82 % 0 mm
16:50 -9 °C -10.7 °C 34740.4 hPa SSW 2.6 km/h 5.1 km/h 82 % 0 mm
17:15 -9.2 °C -10.7 °C 34740.4 hPa SSW 2.6 km/h 5.1 km/h 84 % 0 mm
17:25 -9.4 °C -10.8 °C 34740.4 hPa Calm   7.7 km/h 85 % 0 mm
17:45 -9.7 °C -11 °C 34750.5 hPa SSW 7.7 km/h 10.3 km/h 86 % 0 mm
17:50 -9.8 °C -10.9 °C 34750.5 hPa SSW 7.7 km/h 10.3 km/h 87 % 0 mm
17:55 -9.8 °C -11.1 °C 34750.5 hPa SSW 5.1 km/h 10.3 km/h 87 % 0 mm
18:00 -9.9 °C -11.1 °C 34750.5 hPa SSW 5.1 km/h 10.3 km/h 87 % 0 mm
18:15 -9.9 °C -11.1 °C 34750.5 hPa SSW 2.6 km/h 10.3 km/h 88 % 0 mm
18:45 -10.1 °C -11.3 °C 34760.7 hPa SSW 5.1 km/h 7.7 km/h 87 % 0 mm
18:55 -10.1 °C -11.2 °C 34760.7 hPa Calm   7.7 km/h 88 % 0 mm
19:05 -10.2 °C -11.3 °C 34774.2 hPa Calm     88 % 0 mm
Stazione meteorologica di Viterbo
complimenti di Weather Underground - 2.75 mb

Script sviluppato da  Jim McMurry - jmcmurry@mwt.net Adattato per il modello da  Wim van der Kuil - Leuven-Template.eu

Potete trovare le nostre info meteo anche a:

Weather Underground

AWEKAS

HAMweather, WeatherForYou, PWS Weather

Strumentazione usata:

Stazione meteo
Davis VP2

Programma gestore dati meteo
WVIEW

Server per i dati meteo
WDS-5

Davis VP2

WVIEW

WDS-5